createdAt,value
2022-08-30T00:01:14.310Z,20.43
2022-08-30T00:03:48.213Z,20.45
2022-08-30T00:06:18.208Z,20.45
2022-08-30T00:08:46.720Z,20.39
2022-08-30T00:11:16.311Z,20.43
2022-08-30T00:13:45.605Z,20.47
2022-08-30T00:16:13.727Z,20.50
2022-08-30T00:18:41.264Z,20.49
2022-08-30T00:21:09.235Z,20.48
2022-08-30T00:23:37.298Z,20.49
2022-08-30T00:26:04.413Z,20.52
2022-08-30T00:28:34.257Z,20.54
2022-08-30T00:31:02.262Z,20.60
2022-08-30T00:33:29.876Z,20.62
2022-08-30T00:35:57.674Z,20.65
2022-08-30T00:38:24.857Z,20.71
2022-08-30T00:40:52.989Z,20.75
2022-08-30T00:43:25.517Z,20.76
2022-08-30T00:45:55.857Z,20.77
2022-08-30T00:48:23.551Z,20.79
2022-08-30T00:50:58.403Z,20.81
2022-08-30T00:53:31.267Z,20.81
2022-08-30T00:56:00.430Z,20.81
2022-08-30T00:58:37.416Z,20.84
2022-08-30T01:01:07.079Z,20.85
2022-08-30T01:03:35.779Z,20.80
2022-08-30T01:06:05.004Z,20.65
2022-08-30T01:08:32.303Z,20.53
2022-08-30T01:11:00.051Z,20.37
2022-08-30T01:13:29.511Z,20.29
2022-08-30T01:15:56.900Z,20.30
2022-08-30T01:18:25.446Z,20.20
2022-08-30T01:21:08.584Z,20.19
2022-08-30T01:23:39.724Z,20.10
2022-08-30T01:26:08.093Z,20.08
2022-08-30T01:28:35.703Z,20.02
2022-08-30T01:31:03.398Z,19.91
2022-08-30T01:33:31.068Z,19.96
2022-08-30T01:36:02.521Z,19.88
2022-08-30T01:38:57.230Z,19.72
2022-08-30T01:41:29.807Z,19.63
2022-08-30T01:44:00.490Z,19.62
2022-08-30T01:46:36.817Z,19.57
2022-08-30T01:49:08.343Z,19.44
2022-08-30T01:51:35.623Z,19.37
2022-08-30T01:54:02.769Z,19.30
2022-08-30T01:56:30.283Z,19.29
2022-08-30T01:59:02.638Z,19.37
2022-08-30T02:01:32.595Z,19.42
2022-08-30T02:04:00.437Z,19.41
2022-08-30T02:06:28.136Z,19.38
2022-08-30T02:08:55.401Z,19.25
2022-08-30T02:11:22.611Z,19.10
2022-08-30T02:13:51.123Z,19.18
2022-08-30T02:16:23.125Z,19.19
2022-08-30T02:18:52.661Z,19.12
2022-08-30T02:21:20.177Z,19.11
2022-08-30T02:23:47.630Z,19.14
2022-08-30T02:26:15.383Z,19.24
2022-08-30T02:28:50.125Z,19.19
2022-08-30T02:31:20.818Z,19.18
2022-08-30T02:33:50.477Z,19.16
2022-08-30T02:36:18.095Z,19.17
2022-08-30T02:38:45.375Z,19.16
2022-08-30T02:41:12.426Z,19.10
2022-08-30T02:43:39.568Z,19.18
2022-08-30T02:46:06.897Z,19.15
2022-08-30T02:48:34.320Z,19.19
2022-08-30T02:51:11.535Z,19.24
2022-08-30T02:53:40.254Z,19.18
2022-08-30T02:56:08.514Z,19.08
2022-08-30T02:58:36.595Z,18.95
2022-08-30T03:01:05.178Z,18.98
2022-08-30T03:03:32.448Z,19.04
2022-08-30T03:05:59.511Z,19.05
2022-08-30T03:08:26.557Z,18.98
2022-08-30T03:10:53.493Z,19.05
2022-08-30T03:13:21.303Z,19.03
2022-08-30T03:15:50.460Z,19.06
2022-08-30T03:18:19.456Z,19.06
2022-08-30T03:20:53.968Z,19.03
2022-08-30T03:23:22.783Z,19.08
2022-08-30T03:25:49.842Z,19.11
2022-08-30T03:28:17.231Z,19.09
2022-08-30T03:30:44.237Z,19.08
2022-08-30T03:33:11.529Z,19.06
2022-08-30T03:35:38.742Z,19.10
2022-08-30T03:38:06.498Z,19.13
2022-08-30T03:40:33.731Z,19.05
2022-08-30T03:43:01.169Z,19.06
2022-08-30T03:45:28.423Z,19.09
2022-08-30T03:47:55.589Z,19.11
2022-08-30T03:50:22.952Z,19.06
2022-08-30T03:52:50.366Z,19.03
2022-08-30T03:55:17.481Z,19.08
2022-08-30T03:57:44.448Z,19.09
2022-08-30T04:00:14.126Z,19.09
2022-08-30T04:02:42.059Z,19.10
2022-08-30T04:05:12.770Z,19.14
2022-08-30T04:07:41.806Z,19.11
2022-08-30T04:10:10.122Z,19.19
2022-08-30T04:12:38.565Z,19.18
2022-08-30T04:15:06.373Z,19.23
2022-08-30T04:17:33.409Z,19.28
2022-08-30T04:20:00.466Z,19.28
2022-08-30T04:22:27.528Z,19.29
2022-08-30T04:24:54.616Z,19.32
2022-08-30T04:27:21.563Z,19.35
2022-08-30T04:29:49.212Z,19.38
2022-08-30T04:32:17.264Z,19.38
2022-08-30T04:34:44.354Z,19.39
2022-08-30T04:37:11.406Z,19.46
2022-08-30T04:39:38.899Z,19.48
2022-08-30T04:42:07.045Z,19.48
2022-08-30T04:44:34.089Z,19.45
2022-08-30T04:47:01.216Z,19.51
2022-08-30T04:49:28.223Z,19.56
2022-08-30T04:51:55.903Z,19.61
2022-08-30T04:54:22.998Z,19.67
2022-08-30T04:56:50.010Z,19.68
2022-08-30T04:59:17.579Z,19.67
2022-08-30T05:01:46.111Z,19.67
2022-08-30T05:04:15.077Z,19.70
2022-08-30T05:06:42.885Z,19.72
2022-08-30T05:09:10.089Z,19.76
2022-08-30T05:11:38.967Z,19.77
2022-08-30T05:14:06.211Z,19.77
2022-08-30T05:16:33.353Z,19.73
2022-08-30T05:19:00.744Z,19.76
2022-08-30T05:21:28.992Z,19.76
2022-08-30T05:23:58.710Z,19.80
2022-08-30T05:26:32.647Z,19.88
2022-08-30T05:28:59.934Z,19.94
2022-08-30T05:31:33.471Z,20.00
2022-08-30T05:34:01.766Z,20.07
2022-08-30T05:36:34.719Z,20.12
2022-08-30T05:39:01.780Z,20.14
2022-08-30T05:41:33.344Z,20.21
2022-08-30T05:44:02.765Z,20.27
2022-08-30T05:49:07.692Z,20.41
2022-08-30T05:51:35.979Z,20.50
2022-08-30T05:54:12.620Z,20.54
2022-08-30T05:56:40.441Z,20.60
2022-08-30T05:59:08.474Z,20.71
2022-08-30T06:01:38.230Z,20.81
2022-08-30T06:04:07.046Z,20.87
2022-08-30T06:06:35.779Z,20.99
2022-08-30T06:09:06.089Z,21.05
2022-08-30T06:11:33.942Z,21.15
2022-08-30T06:14:01.481Z,21.21
2022-08-30T06:16:29.832Z,21.30
2022-08-30T06:18:58.767Z,21.26
2022-08-30T06:21:31.800Z,21.19
2022-08-30T06:23:59.342Z,21.25
2022-08-30T06:26:27.991Z,21.33
2022-08-30T06:28:56.004Z,21.32
2022-08-30T06:31:25.152Z,21.33
2022-08-30T06:33:52.586Z,21.43
2022-08-30T06:36:23.285Z,21.45
2022-08-30T06:38:52.401Z,21.35
2022-08-30T06:41:22.617Z,21.36
2022-08-30T06:43:50.358Z,21.25
2022-08-30T06:46:20.713Z,21.40
2022-08-30T06:48:48.727Z,21.47
2022-08-30T06:51:20.446Z,21.47
2022-08-30T06:53:49.088Z,21.47
2022-08-30T06:56:17.362Z,21.62
2022-08-30T06:58:45.198Z,21.72
2022-08-30T07:01:16.285Z,21.91
2022-08-30T07:03:43.681Z,22.00
2022-08-30T07:06:11.449Z,22.14
2022-08-30T07:08:38.796Z,22.25
2022-08-30T07:11:07.622Z,22.42
2022-08-30T07:13:36.394Z,22.61
2022-08-30T07:16:13.574Z,22.76
2022-08-30T07:18:56.830Z,22.78
2022-08-30T07:21:37.538Z,22.81
2022-08-30T07:24:06.940Z,22.86
2022-08-30T07:26:47.457Z,22.95
2022-08-30T07:29:15.201Z,23.04
2022-08-30T07:31:42.770Z,23.19
2022-08-30T07:34:10.290Z,23.29
2022-08-30T07:36:39.259Z,23.31
2022-08-30T07:39:07.309Z,23.41
2022-08-30T07:41:38.914Z,23.61
2022-08-30T07:44:09.559Z,23.80
2022-08-30T07:46:39.004Z,23.86
2022-08-30T07:49:11.351Z,23.98
2022-08-30T07:51:40.208Z,24.27
2022-08-30T07:54:07.616Z,24.32
2022-08-30T07:56:35.307Z,24.37
2022-08-30T07:59:02.377Z,24.50
2022-08-30T08:01:29.502Z,24.40
2022-08-30T08:03:56.914Z,24.39
2022-08-30T08:06:24.547Z,24.56
2022-08-30T08:08:52.219Z,24.66
2022-08-30T08:11:24.843Z,24.83
2022-08-30T08:13:53.897Z,24.95
2022-08-30T08:16:23.918Z,24.82
2022-08-30T08:18:52.008Z,24.93
2022-08-30T08:21:19.500Z,24.96
2022-08-30T08:23:47.133Z,25.09
2022-08-30T08:26:14.517Z,25.20
2022-08-30T08:28:41.690Z,25.33
2022-08-30T08:31:16.397Z,25.60
2022-08-30T08:33:44.169Z,25.61
2022-08-30T08:36:11.289Z,25.61
2022-08-30T08:38:38.335Z,25.64
2022-08-30T08:41:24.294Z,25.79
2022-08-30T08:43:51.706Z,25.64
2022-08-30T08:46:29.154Z,25.95
2022-08-30T08:49:01.670Z,26.08
2022-08-30T08:51:51.751Z,26.19
2022-08-30T08:54:44.711Z,26.46
2022-08-30T08:57:15.888Z,26.73
2022-08-30T08:59:45.122Z,26.76
2022-08-30T09:02:27.526Z,26.77
2022-08-30T09:04:59.747Z,26.61
2022-08-30T09:07:31.221Z,26.46
2022-08-30T09:10:00.752Z,26.36
2022-08-30T09:12:28.496Z,26.36
2022-08-30T09:15:19.021Z,26.41
2022-08-30T09:17:56.530Z,26.58
2022-08-30T09:20:26.633Z,26.81
2022-08-30T09:22:53.971Z,26.94
2022-08-30T09:25:26.536Z,26.85
2022-08-30T09:27:56.306Z,26.89
2022-08-30T09:30:27.258Z,27.06
2022-08-30T09:33:04.443Z,27.22
2022-08-30T09:35:43.943Z,27.32
2022-08-30T09:38:13.159Z,27.27
2022-08-30T09:40:48.962Z,27.30
2022-08-30T09:43:18.824Z,27.39
2022-08-30T09:45:50.032Z,27.35
2022-08-30T09:48:23.181Z,27.48
2022-08-30T09:51:06.345Z,27.51
2022-08-30T09:53:36.207Z,27.59
2022-08-30T09:56:10.187Z,27.69
2022-08-30T09:58:57.640Z,27.63
2022-08-30T10:01:30.761Z,27.46
2022-08-30T10:04:07.595Z,27.48
2022-08-30T10:06:44.525Z,27.52
2022-08-30T10:09:27.739Z,27.62
2022-08-30T10:12:11.150Z,27.68
2022-08-30T10:14:51.622Z,27.67
2022-08-30T10:17:54.107Z,27.86
2022-08-30T10:20:31.841Z,28.07
2022-08-30T10:23:14.642Z,28.24
2022-08-30T10:25:50.644Z,28.43
2022-08-30T10:28:29.398Z,28.59
2022-08-30T10:31:05.401Z,28.45
2022-08-30T10:33:45.415Z,28.62
2022-08-30T10:36:15.062Z,28.72
2022-08-30T10:38:48.753Z,28.64
2022-08-30T10:41:35.230Z,28.53
2022-08-30T10:44:25.108Z,28.47
2022-08-30T10:47:18.552Z,28.65
2022-08-30T10:49:57.605Z,28.67
2022-08-30T10:52:35.615Z,28.67
2022-08-30T10:55:08.893Z,28.81
2022-08-30T10:57:37.661Z,28.92
2022-08-30T11:00:14.520Z,29.18
2022-08-30T11:03:26.063Z,29.22
2022-08-30T11:05:59.242Z,29.49
2022-08-30T11:08:42.077Z,29.79
2022-08-30T11:11:35.999Z,30.01
2022-08-30T11:14:12.004Z,30.14
2022-08-30T11:16:43.314Z,29.95
2022-08-30T11:19:22.630Z,30.12
2022-08-30T11:21:50.958Z,30.31
2022-08-30T11:24:21.948Z,30.05
2022-08-30T11:26:48.990Z,30.16
2022-08-30T11:29:35.858Z,30.32
2022-08-30T11:32:17.383Z,30.48
2022-08-30T11:34:47.298Z,30.93
2022-08-30T11:37:37.376Z,31.43
2022-08-30T11:40:22.800Z,31.76
2022-08-30T11:42:52.231Z,32.01
2022-08-30T11:45:24.868Z,32.31
2022-08-30T11:48:40.402Z,32.63
2022-08-30T11:55:03.469Z,32.56
2022-08-30T11:57:51.616Z,32.81
2022-08-30T12:00:39.442Z,33.16
2022-08-30T12:03:33.273Z,33.26
2022-08-30T12:06:05.691Z,33.45
2022-08-30T12:08:36.183Z,33.51
2022-08-30T12:11:09.285Z,33.52
2022-08-30T12:13:37.683Z,33.79
2022-08-30T12:16:09.503Z,34.10
2022-08-30T12:18:50.197Z,34.25
2022-08-30T12:21:21.478Z,34.28
2022-08-30T12:24:22.407Z,34.18
2022-08-30T12:26:52.570Z,34.38
2022-08-30T12:29:23.207Z,34.45
2022-08-30T12:31:55.376Z,34.26
2022-08-30T12:34:34.310Z,34.33
2022-08-30T12:37:08.886Z,34.40
2022-08-30T12:39:46.640Z,34.74
2022-08-30T12:42:26.947Z,35.11
2022-08-30T12:44:58.064Z,35.44
2022-08-30T12:47:38.256Z,35.83
2022-08-30T12:50:06.854Z,35.94
2022-08-30T12:52:42.354Z,35.94
2022-08-30T12:55:19.690Z,36.08
2022-08-30T12:58:00.962Z,36.04
2022-08-30T13:00:34.098Z,35.96
2022-08-30T13:03:28.464Z,36.12
2022-08-30T13:05:57.687Z,36.61
2022-08-30T13:08:42.864Z,37.00
2022-08-30T13:11:24.963Z,37.12
2022-08-30T13:14:18.574Z,37.43
2022-08-30T13:16:47.027Z,37.65
2022-08-30T13:19:33.686Z,37.58
2022-08-30T13:22:02.005Z,37.68
2022-08-30T13:24:29.190Z,37.90
2022-08-30T13:27:02.334Z,38.14
2022-08-30T13:29:30.116Z,38.23
2022-08-30T13:31:57.802Z,38.41
2022-08-30T13:34:25.125Z,38.41
2022-08-30T13:36:56.114Z,38.49
2022-08-30T13:39:23.295Z,38.80
2022-08-30T13:41:51.585Z,39.00
2022-08-30T13:44:18.859Z,38.99
2022-08-30T13:46:55.271Z,39.19
2022-08-30T13:49:43.769Z,39.35
2022-08-30T13:52:22.937Z,39.35
2022-08-30T13:54:52.154Z,39.47
2022-08-30T14:00:15.270Z,38.91
2022-08-30T14:02:46.669Z,38.28
2022-08-30T14:05:47.108Z,37.91
2022-08-30T14:08:05.709Z,37.59
2022-08-30T14:10:37.739Z,37.25
2022-08-30T14:13:12.897Z,36.85
2022-08-30T14:15:42.000Z,35.53
2022-08-30T14:18:09.378Z,34.16
2022-08-30T14:20:38.411Z,33.41
2022-08-30T14:23:07.681Z,31.61
2022-08-30T14:25:40.242Z,30.55
2022-08-30T14:28:09.544Z,29.47
2022-08-30T14:30:38.978Z,28.55
2022-08-30T14:33:06.585Z,27.64
2022-08-30T14:35:33.803Z,27.56
2022-08-30T14:38:00.999Z,27.65
2022-08-30T14:40:28.231Z,27.70
2022-08-30T14:42:55.434Z,27.03
2022-08-30T14:45:22.614Z,21.81
2022-08-30T14:47:50.473Z,21.00
2022-08-30T14:50:17.636Z,-145.31
2022-08-30T14:53:43.402Z,-145.31
2022-08-30T14:56:25.714Z,-145.31
2022-08-30T14:58:54.598Z,-145.31
2022-08-30T15:01:22.772Z,-145.31
2022-08-30T15:03:51.305Z,-145.31
2022-08-30T15:06:18.843Z,-145.31
2022-08-30T15:08:48.445Z,-145.31
2022-08-30T15:11:18.719Z,-145.31
2022-08-30T15:13:46.344Z,-145.31
2022-08-30T15:16:17.722Z,-145.31
2022-08-30T15:18:48.323Z,-145.31
2022-08-30T15:21:21.979Z,-145.31
2022-08-30T15:23:49.799Z,-145.31
2022-08-30T15:26:20.049Z,-145.31
2022-08-30T15:28:47.499Z,-145.31
2022-08-30T15:31:14.779Z,-145.31
2022-08-30T15:33:42.099Z,-145.31
2022-08-30T15:36:12.435Z,-145.31
2022-08-30T15:38:41.173Z,-145.31
2022-08-30T15:41:12.563Z,-145.31
2022-08-30T15:43:43.651Z,-145.31
2022-08-30T15:46:22.935Z,-145.31
2022-08-30T15:48:52.323Z,-145.31
2022-08-30T15:51:19.559Z,-145.31
2022-08-30T15:53:46.959Z,-145.31
2022-08-30T15:56:16.487Z,-145.31
2022-08-30T15:58:44.417Z,-145.31
2022-08-30T16:01:13.484Z,-145.31
2022-08-30T16:03:41.833Z,-145.31
2022-08-30T16:06:22.063Z,-145.31
2022-08-30T16:08:49.875Z,-145.31
2022-08-30T16:11:19.936Z,-145.31
2022-08-30T16:13:50.563Z,-145.31
2022-08-30T16:16:20.950Z,-145.31
2022-08-30T16:18:53.935Z,-145.31
2022-08-30T16:21:25.138Z,-145.31
2022-08-30T16:24:43.883Z,-145.31
2022-08-30T16:27:13.967Z,-145.31
2022-08-30T16:29:40.993Z,-145.31
2022-08-30T16:32:08.241Z,-145.31
2022-08-30T16:34:35.802Z,-145.31
2022-08-30T16:37:04.266Z,-145.31
2022-08-30T16:39:32.473Z,-145.31
2022-08-30T16:42:03.125Z,-145.31
2022-08-30T16:44:30.470Z,-145.31
2022-08-30T16:46:57.660Z,-145.31
2022-08-30T16:49:25.528Z,-145.31
2022-08-30T16:51:53.624Z,-145.31
2022-08-30T16:54:22.063Z,-145.31
2022-08-30T16:56:49.464Z,-145.31
2022-08-30T16:59:16.888Z,-145.31
2022-08-30T17:01:45.047Z,-145.31
2022-08-30T17:04:13.927Z,-145.31
2022-08-30T17:06:47.279Z,-145.31
2022-08-30T17:09:15.126Z,-145.31
2022-08-30T17:11:42.870Z,-145.31
2022-08-30T17:14:10.356Z,-145.31
2022-08-30T17:16:38.131Z,-145.31
2022-08-30T17:19:07.337Z,-145.31
2022-08-30T17:21:35.095Z,-145.31
2022-08-30T17:24:03.547Z,-145.31
2022-08-30T17:26:33.054Z,-145.31
2022-08-30T17:29:00.569Z,-145.31
2022-08-30T17:31:31.487Z,-145.31
2022-08-30T17:34:03.712Z,-145.31
2022-08-30T17:36:36.642Z,-145.31
2022-08-30T17:39:10.638Z,-145.31
2022-08-30T17:41:49.942Z,-145.31
2022-08-30T17:44:20.535Z,-145.31
2022-08-30T17:46:47.839Z,-145.31
2022-08-30T17:49:15.243Z,-145.31
2022-08-30T17:51:43.185Z,-145.31
2022-08-30T17:54:12.933Z,-145.31
2022-08-30T17:56:41.536Z,-145.31
2022-08-30T17:59:11.534Z,-145.31
2022-08-30T18:01:42.228Z,-145.31
2022-08-30T18:04:09.951Z,-145.31
2022-08-30T18:06:37.222Z,-145.31
2022-08-30T18:09:08.961Z,-145.31
2022-08-30T18:11:39.897Z,-145.31
2022-08-30T18:14:10.880Z,-145.31
2022-08-30T18:16:39.285Z,-145.31
2022-08-30T18:19:20.542Z,-145.31
2022-08-30T18:21:47.702Z,-145.31
2022-08-30T18:24:16.723Z,-145.31
2022-08-30T18:26:43.940Z,-145.31
2022-08-30T18:29:11.644Z,-145.31
2022-08-30T18:31:39.186Z,-145.31
2022-08-30T18:34:12.171Z,-145.31
2022-08-30T18:36:42.075Z,-145.31
2022-08-30T18:39:11.174Z,-145.31
2022-08-30T18:41:43.183Z,-145.31
2022-08-30T18:44:27.140Z,-145.31
2022-08-30T18:46:57.084Z,-145.31
2022-08-30T18:49:26.514Z,-145.31
2022-08-30T18:51:54.156Z,-145.31
2022-08-30T18:54:21.263Z,-145.31
2022-08-30T18:56:49.184Z,-145.31
2022-08-30T18:59:16.454Z,-145.31
2022-08-30T19:01:44.283Z,-145.31
2022-08-30T19:04:22.460Z,-145.31
2022-08-30T19:06:57.682Z,-145.31
2022-08-30T19:09:26.640Z,-145.31
2022-08-30T19:11:54.438Z,-145.31
2022-08-30T19:14:21.927Z,-145.31
2022-08-30T19:16:49.539Z,-145.31
2022-08-30T19:19:16.845Z,-145.31
2022-08-30T19:21:44.365Z,-145.31
2022-08-30T19:24:11.916Z,-145.31
2022-08-30T19:26:40.720Z,-145.31
2022-08-30T19:29:08.147Z,-145.31
2022-08-30T19:31:35.494Z,-145.31
2022-08-30T19:34:02.784Z,-145.31
2022-08-30T19:36:31.270Z,-145.31
2022-08-30T19:38:58.520Z,-145.31
2022-08-30T19:41:27.467Z,-145.31
2022-08-30T19:43:54.786Z,-145.31
2022-08-30T19:46:22.103Z,-145.31
2022-08-30T19:48:49.167Z,-145.31
2022-08-30T19:51:17.268Z,-145.31
2022-08-30T19:53:44.319Z,-145.31
2022-08-30T19:56:11.783Z,-145.31
2022-08-30T19:58:39.823Z,-145.31
2022-08-30T20:01:12.255Z,-145.31
2022-08-30T20:03:40.890Z,-145.31
2022-08-30T20:06:08.935Z,-145.31
2022-08-30T20:08:37.563Z,-145.31
2022-08-30T20:11:05.239Z,-145.31
2022-08-30T20:13:34.406Z,-145.31
2022-08-30T20:16:01.697Z,-145.31
2022-08-30T20:18:29.419Z,-145.31
2022-08-30T20:20:57.517Z,-145.31
2022-08-30T20:23:25.244Z,-145.31
2022-08-30T20:25:54.846Z,-145.31
2022-08-30T20:28:24.975Z,-145.31
2022-08-30T20:30:53.381Z,-145.31
2022-08-30T20:33:23.749Z,-145.31
2022-08-30T20:35:52.445Z,-145.31
2022-08-30T20:38:21.570Z,-145.31
2022-08-30T20:40:51.532Z,-145.31
2022-08-30T20:43:23.344Z,-145.31
2022-08-30T20:45:50.763Z,-145.31
2022-08-30T20:48:18.924Z,-145.31
2022-08-30T20:50:46.100Z,-145.31
2022-08-30T20:53:13.617Z,-145.31
2022-08-30T20:55:42.743Z,-145.31
2022-08-30T20:58:10.174Z,-145.31
2022-08-30T21:00:37.700Z,-145.31
2022-08-30T21:03:08.357Z,-145.31
2022-08-30T21:05:53.845Z,-145.31
2022-08-30T21:08:21.440Z,-145.31
2022-08-30T21:10:48.470Z,-145.31
2022-08-30T21:13:15.964Z,-145.31
2022-08-30T21:15:46.387Z,-145.31
2022-08-30T21:18:14.438Z,-145.31
2022-08-30T21:20:42.041Z,-145.31
2022-08-30T21:23:13.297Z,-145.31
2022-08-30T21:25:43.801Z,-145.31
2022-08-30T21:28:13.210Z,-145.31
2022-08-30T21:30:40.686Z,-145.31
2022-08-30T21:33:08.360Z,-145.31
2022-08-30T21:35:56.125Z,-145.31
2022-08-30T21:38:23.593Z,-145.31
2022-08-30T21:40:50.869Z,-145.31
2022-08-30T21:43:18.385Z,-145.31
2022-08-30T21:45:46.271Z,-145.31
2022-08-30T21:48:14.430Z,-145.31
2022-08-30T21:50:44.480Z,-145.31
2022-08-30T21:53:15.414Z,-145.31
2022-08-30T21:55:45.349Z,-145.31
2022-08-30T21:58:17.497Z,-145.31
2022-08-30T22:00:45.046Z,-145.31
2022-08-30T22:03:13.323Z,-145.31
2022-08-30T22:05:41.290Z,-145.31
2022-08-30T22:08:09.529Z,-145.31
2022-08-30T22:10:37.652Z,-145.31
2022-08-30T22:13:05.265Z,-145.31
2022-08-30T22:15:32.744Z,-145.31
2022-08-30T22:18:00.800Z,-145.31
2022-08-30T22:20:30.334Z,-145.31
2022-08-30T22:22:58.698Z,-145.31
2022-08-30T22:25:25.783Z,-145.31
2022-08-30T22:27:53.047Z,-145.31
2022-08-30T22:30:20.472Z,-145.31
2022-08-30T22:32:47.912Z,-145.31
2022-08-30T22:35:15.887Z,-145.31
2022-08-30T22:37:46.779Z,-145.31
2022-08-30T22:40:19.760Z,-145.31
2022-08-30T22:42:48.404Z,-145.31
2022-08-30T22:45:15.858Z,-145.31
2022-08-30T22:47:43.258Z,-145.31
2022-08-30T22:50:13.648Z,-145.31
2022-08-30T22:52:41.265Z,-145.31
2022-08-30T22:55:09.237Z,-145.31
2022-08-30T22:57:38.654Z,-145.31
2022-08-30T23:00:15.167Z,-145.31
2022-08-30T23:02:48.735Z,-145.31
2022-08-30T23:05:17.383Z,-145.31
2022-08-30T23:07:44.440Z,-145.31
2022-08-30T23:10:13.267Z,-145.31
2022-08-30T23:12:40.695Z,-145.31
2022-08-30T23:15:12.317Z,-145.31
2022-08-30T23:17:40.001Z,-145.31
2022-08-30T23:20:08.425Z,-145.31
2022-08-30T23:22:36.032Z,-145.31
2022-08-30T23:25:22.067Z,-145.31
2022-08-30T23:28:11.610Z,-145.31
2022-08-30T23:31:03.940Z,-145.31
2022-08-30T23:33:49.731Z,-145.31
2022-08-30T23:36:35.645Z,-145.31
2022-08-30T23:39:21.946Z,-145.31
2022-08-30T23:42:08.050Z,-145.31
2022-08-30T23:44:53.703Z,-145.31
2022-08-30T23:47:40.718Z,-145.31
2022-08-30T23:50:27.325Z,-145.31
2022-08-30T23:53:15.079Z,-145.31
2022-08-30T23:56:00.792Z,-145.31
2022-08-30T23:58:47.020Z,-145.31
